createdAt,value
2017-11-20T00:00:05.045Z,4.00
2017-11-20T00:00:37.562Z,4.00
2017-11-20T00:01:10.064Z,4.00
2017-11-20T00:01:42.596Z,4.00
2017-11-20T00:02:15.090Z,4.00
2017-11-20T00:02:48.359Z,4.00
2017-11-20T00:03:20.880Z,4.00
2017-11-20T00:03:53.456Z,4.00
2017-11-20T00:04:25.996Z,3.90
2017-11-20T00:04:58.605Z,3.90
2017-11-20T00:05:31.127Z,3.90
2017-11-20T00:06:03.660Z,3.90
2017-11-20T00:06:36.952Z,3.90
2017-11-20T00:07:09.456Z,3.90
2017-11-20T00:07:41.964Z,3.90
2017-11-20T00:08:15.267Z,3.90
2017-11-20T00:08:47.774Z,3.90
2017-11-20T00:09:20.307Z,3.90
2017-11-20T00:09:52.828Z,3.90
2017-11-20T00:10:25.598Z,3.90
2017-11-20T00:10:58.130Z,3.90
2017-11-20T00:11:30.659Z,3.90
2017-11-20T00:12:03.277Z,3.90
2017-11-20T00:12:35.884Z,3.90
2017-11-20T00:13:08.398Z,3.80
2017-11-20T00:13:40.919Z,3.80
2017-11-20T00:14:13.420Z,3.80
2017-11-20T00:14:45.944Z,3.80
2017-11-20T00:15:18.452Z,3.80
2017-11-20T00:15:50.963Z,3.80
2017-11-20T00:16:23.473Z,3.80
2017-11-20T00:16:56.818Z,3.80
2017-11-20T00:17:29.364Z,3.80
2017-11-20T00:18:02.150Z,3.80
2017-11-20T00:18:34.671Z,3.80
2017-11-20T00:19:07.179Z,3.70
2017-11-20T00:19:39.874Z,3.70
2017-11-20T00:20:12.510Z,3.70
2017-11-20T00:20:45.083Z,3.70
2017-11-20T00:21:17.616Z,3.70
2017-11-20T00:21:50.131Z,3.70
2017-11-20T00:22:22.656Z,3.70
2017-11-20T00:22:55.166Z,3.70
2017-11-20T00:23:27.693Z,3.70
2017-11-20T00:24:00.222Z,3.70
2017-11-20T00:24:32.753Z,3.70
2017-11-20T00:25:05.804Z,3.70
2017-11-20T00:25:38.431Z,3.70
2017-11-20T00:26:10.953Z,3.70
2017-11-20T00:26:43.542Z,3.70
2017-11-20T00:27:16.132Z,3.70
2017-11-20T00:27:48.653Z,3.70
2017-11-20T00:28:21.155Z,3.70
2017-11-20T00:28:53.659Z,3.60
2017-11-20T00:29:26.175Z,3.60
2017-11-20T00:29:58.684Z,3.60
2017-11-20T00:30:31.201Z,3.60
2017-11-20T00:31:04.512Z,3.60
2017-11-20T00:31:37.038Z,3.60
2017-11-20T00:32:09.694Z,3.60
2017-11-20T00:32:42.204Z,3.60
2017-11-20T00:33:14.717Z,3.60
2017-11-20T00:33:47.225Z,3.60
2017-11-20T00:34:19.739Z,3.60
2017-11-20T00:34:52.251Z,3.60
2017-11-20T00:35:24.760Z,3.60
2017-11-20T00:35:57.279Z,3.60
2017-11-20T00:36:29.822Z,3.60
2017-11-20T00:37:02.330Z,3.50
2017-11-20T00:37:34.847Z,3.50
2017-11-20T00:38:08.108Z,3.50
2017-11-20T00:38:40.676Z,3.50
2017-11-20T00:39:13.181Z,3.50
2017-11-20T00:39:45.866Z,3.50
2017-11-20T00:40:18.354Z,3.50
2017-11-20T00:40:50.862Z,3.50
2017-11-20T00:41:23.369Z,3.50
2017-11-20T00:41:55.915Z,3.50
2017-11-20T00:42:28.433Z,3.40
2017-11-20T00:43:01.717Z,3.40
2017-11-20T00:43:34.292Z,3.40
2017-11-20T00:44:06.819Z,3.40
2017-11-20T00:44:40.116Z,3.40
2017-11-20T00:45:12.666Z,3.40
2017-11-20T00:45:45.215Z,3.40
2017-11-20T00:46:17.740Z,3.40
2017-11-20T00:46:50.251Z,3.40
2017-11-20T00:47:22.792Z,3.40
2017-11-20T00:47:55.306Z,3.40
2017-11-20T00:48:27.822Z,3.40
2017-11-20T00:49:00.445Z,3.40
2017-11-20T00:49:32.968Z,3.40
2017-11-20T00:50:05.700Z,3.40
2017-11-20T00:50:38.260Z,3.40
2017-11-20T00:51:10.771Z,3.40
2017-11-20T00:51:44.524Z,3.40
2017-11-20T00:52:17.035Z,3.40
2017-11-20T00:52:49.540Z,3.40
2017-11-20T00:53:22.047Z,3.40
2017-11-20T00:53:54.565Z,3.40
2017-11-20T00:54:27.078Z,3.30
2017-11-20T00:55:01.001Z,3.30
2017-11-20T00:55:33.526Z,3.30
2017-11-20T00:56:06.048Z,3.30
2017-11-20T00:56:38.547Z,3.30
2017-11-20T00:57:11.171Z,3.30
2017-11-20T00:57:43.684Z,3.30
2017-11-20T00:58:16.203Z,3.30
2017-11-20T00:58:48.699Z,3.30
2017-11-20T00:59:21.203Z,3.30
2017-11-20T00:59:53.698Z,3.30
2017-11-20T01:00:26.226Z,3.30
2017-11-20T01:00:58.842Z,3.30
2017-11-20T01:01:31.360Z,3.30
2017-11-20T01:02:03.886Z,3.20
2017-11-20T01:02:36.399Z,3.20
2017-11-20T01:03:08.908Z,3.20
2017-11-20T01:03:41.432Z,3.20
2017-11-20T01:04:13.949Z,3.20
2017-11-20T01:04:46.478Z,3.20
2017-11-20T01:05:19.011Z,3.20
2017-11-20T01:05:51.527Z,3.20
2017-11-20T01:06:24.034Z,3.20
2017-11-20T01:06:56.536Z,3.20
2017-11-20T01:07:29.074Z,3.20
2017-11-20T01:08:01.611Z,3.20
2017-11-20T01:08:34.176Z,3.20
2017-11-20T01:09:06.690Z,3.20
2017-11-20T01:09:39.225Z,3.20
2017-11-20T01:10:11.728Z,3.20
2017-11-20T01:10:44.251Z,3.20
2017-11-20T01:11:16.778Z,3.10
2017-11-20T01:11:49.276Z,3.10
2017-11-20T01:12:21.793Z,3.10
2017-11-20T01:12:54.296Z,3.20
2017-11-20T01:13:26.813Z,3.10
2017-11-20T01:13:59.455Z,3.10
2017-11-20T01:14:31.979Z,3.10
2017-11-20T01:15:04.487Z,3.10
2017-11-20T01:15:37.011Z,3.10
2017-11-20T01:16:09.577Z,3.10
2017-11-20T01:16:42.103Z,3.10
2017-11-20T01:17:14.616Z,3.10
2017-11-20T01:17:47.260Z,3.10
2017-11-20T01:18:19.764Z,3.10
2017-11-20T01:18:52.292Z,3.10
2017-11-20T01:19:24.802Z,3.10
2017-11-20T01:19:57.307Z,3.10
2017-11-20T01:20:29.807Z,3.10
2017-11-20T01:21:02.349Z,3.10
2017-11-20T01:21:34.872Z,3.10
2017-11-20T01:22:07.389Z,3.10
2017-11-20T01:22:39.914Z,3.10
2017-11-20T01:23:12.428Z,3.10
2017-11-20T01:23:44.957Z,3.10
2017-11-20T01:24:17.470Z,3.10
2017-11-20T01:24:49.976Z,3.10
2017-11-20T01:25:22.513Z,3.10
2017-11-20T01:25:55.036Z,3.10
2017-11-20T01:26:27.558Z,3.10
2017-11-20T01:27:00.078Z,3.10
2017-11-20T01:27:32.701Z,3.10
2017-11-20T01:28:05.407Z,3.10
2017-11-20T01:28:37.918Z,3.00
2017-11-20T01:29:10.470Z,3.00
2017-11-20T01:29:43.036Z,3.00
2017-11-20T01:30:16.330Z,3.00
2017-11-20T01:30:48.831Z,3.00
2017-11-20T01:31:21.371Z,3.00
2017-11-20T01:31:53.878Z,3.00
2017-11-20T01:32:26.388Z,3.00
2017-11-20T01:32:58.934Z,3.00
2017-11-20T01:33:31.625Z,3.00
2017-11-20T01:34:04.128Z,3.00
2017-11-20T01:34:36.648Z,3.00
2017-11-20T01:35:09.193Z,3.00
2017-11-20T01:35:41.710Z,3.00
2017-11-20T01:36:14.245Z,3.00
2017-11-20T01:36:46.779Z,3.00
2017-11-20T01:37:20.064Z,3.00
2017-11-20T01:37:52.594Z,2.90
2017-11-20T01:38:25.124Z,3.00
2017-11-20T01:38:57.632Z,2.90
2017-11-20T01:39:30.164Z,2.90
2017-11-20T01:40:02.683Z,2.90
2017-11-20T01:40:35.213Z,2.90
2017-11-20T01:41:07.728Z,2.90
2017-11-20T01:41:40.378Z,2.90
2017-11-20T01:42:12.880Z,2.90
2017-11-20T01:42:46.180Z,2.90
2017-11-20T01:43:18.709Z,2.90
2017-11-20T01:43:51.282Z,2.90
2017-11-20T01:44:23.798Z,2.90
2017-11-20T01:44:56.296Z,2.90
2017-11-20T01:45:28.804Z,2.90
2017-11-20T01:46:01.309Z,2.90
2017-11-20T01:46:33.818Z,2.90
2017-11-20T01:47:06.344Z,2.90
2017-11-20T01:47:38.883Z,2.90
2017-11-20T01:48:11.415Z,2.90
2017-11-20T01:48:43.928Z,2.90
2017-11-20T01:49:16.453Z,2.90
2017-11-20T01:49:48.988Z,2.90
2017-11-20T01:50:21.505Z,2.90
2017-11-20T01:50:54.006Z,2.90
2017-11-20T01:51:26.504Z,2.90
2017-11-20T01:51:59.109Z,2.90
2017-11-20T01:52:31.619Z,2.90
2017-11-20T01:53:04.146Z,2.90
2017-11-20T01:53:36.689Z,2.90
2017-11-20T01:54:09.238Z,2.90
2017-11-20T01:54:42.541Z,2.90
2017-11-20T01:55:15.068Z,2.80
2017-11-20T01:55:47.630Z,2.90
2017-11-20T01:56:20.144Z,2.80
2017-11-20T01:56:52.663Z,2.80
2017-11-20T01:57:25.341Z,2.90
2017-11-20T01:57:58.615Z,2.80
2017-11-20T01:58:31.898Z,2.80
2017-11-20T01:59:04.419Z,2.80
2017-11-20T01:59:36.941Z,2.80
2017-11-20T02:00:09.467Z,2.80
2017-11-20T02:00:42.784Z,2.80
2017-11-20T02:01:15.318Z,2.80
2017-11-20T02:01:47.839Z,2.80
2017-11-20T02:02:20.360Z,2.80
2017-11-20T02:02:59.676Z,2.80
2017-11-20T02:03:32.962Z,2.80
2017-11-20T02:04:05.463Z,2.80
2017-11-20T02:04:37.984Z,2.80
2017-11-20T02:05:11.295Z,2.80
2017-11-20T02:05:43.806Z,2.80
2017-11-20T02:06:16.333Z,2.80
2017-11-20T02:06:48.863Z,2.80
2017-11-20T02:07:22.135Z,2.80
2017-11-20T02:07:54.665Z,2.80
2017-11-20T02:08:27.195Z,2.80
2017-11-20T02:08:59.744Z,2.80
2017-11-20T02:09:32.265Z,2.80
2017-11-20T02:10:04.785Z,2.80
2017-11-20T02:10:37.319Z,2.80
2017-11-20T02:11:09.827Z,2.80
2017-11-20T02:11:42.336Z,2.80
2017-11-20T02:12:14.861Z,2.80
2017-11-20T02:12:47.397Z,2.70
2017-11-20T02:13:19.920Z,2.70
2017-11-20T02:13:52.445Z,2.70
2017-11-20T02:14:24.959Z,2.70
2017-11-20T02:14:57.483Z,2.70
2017-11-20T02:15:30.026Z,2.70
2017-11-20T02:16:02.548Z,2.70
2017-11-20T02:16:35.072Z,2.70
2017-11-20T02:17:07.586Z,2.70
2017-11-20T02:17:40.100Z,2.70
2017-11-20T02:18:12.610Z,2.70
2017-11-20T02:18:46.008Z,2.70
2017-11-20T02:19:18.541Z,2.70
2017-11-20T02:19:51.080Z,2.70
2017-11-20T02:20:23.600Z,2.70
2017-11-20T02:20:56.122Z,2.70
2017-11-20T02:21:28.660Z,2.70
2017-11-20T02:22:01.189Z,2.70
2017-11-20T02:22:33.702Z,2.70
2017-11-20T02:23:06.224Z,2.70
2017-11-20T02:23:38.742Z,2.70
2017-11-20T02:24:11.256Z,2.70
2017-11-20T02:24:43.782Z,2.70
2017-11-20T02:25:17.054Z,2.70
2017-11-20T02:25:49.562Z,2.70
2017-11-20T02:26:22.114Z,2.70
2017-11-20T02:26:54.650Z,2.70
2017-11-20T02:27:27.933Z,2.70
2017-11-20T02:28:00.442Z,2.70
2017-11-20T02:28:32.953Z,2.70
2017-11-20T02:29:06.242Z,2.70
2017-11-20T02:29:38.774Z,2.70
2017-11-20T02:30:11.289Z,2.70
2017-11-20T02:30:43.802Z,2.70
2017-11-20T02:31:16.330Z,2.70
2017-11-20T02:31:48.865Z,2.70
2017-11-20T02:32:21.385Z,2.70
2017-11-20T02:32:53.919Z,2.70
2017-11-20T02:33:26.419Z,2.70
2017-11-20T02:33:58.928Z,2.70
2017-11-20T02:34:31.463Z,2.70
2017-11-20T02:35:04.747Z,2.70
2017-11-20T02:35:37.262Z,2.70
2017-11-20T02:36:09.776Z,2.70
2017-11-20T02:36:43.057Z,2.70
2017-11-20T02:37:17.039Z,2.70
2017-11-20T02:37:49.567Z,2.70
2017-11-20T02:38:22.075Z,2.70
2017-11-20T02:38:54.605Z,2.70
2017-11-20T02:39:27.137Z,2.80
2017-11-20T02:39:59.669Z,2.70
2017-11-20T02:40:32.193Z,2.80
2017-11-20T02:41:04.729Z,2.80
2017-11-20T02:41:37.257Z,2.80
2017-11-20T02:42:11.491Z,2.80
2017-11-20T02:42:44.582Z,2.80
2017-11-20T02:43:17.115Z,2.80
2017-11-20T02:43:49.643Z,2.80
2017-11-20T02:44:22.172Z,2.80
2017-11-20T02:44:55.501Z,2.80
2017-11-20T02:45:28.021Z,2.80
2017-11-20T02:46:00.669Z,2.80
2017-11-20T02:46:33.193Z,2.80
2017-11-20T02:47:05.741Z,2.80
2017-11-20T02:47:38.244Z,2.80
2017-11-20T02:48:10.766Z,2.80
2017-11-20T02:48:43.291Z,2.90
2017-11-20T02:49:15.806Z,2.90
2017-11-20T02:49:48.320Z,2.90
2017-11-20T02:50:20.844Z,2.90
2017-11-20T02:50:53.358Z,2.90
2017-11-20T02:51:25.892Z,2.90
2017-11-20T02:51:58.413Z,2.90
2017-11-20T02:52:30.942Z,2.90
2017-11-20T02:53:03.468Z,2.90
2017-11-20T02:53:36.006Z,2.90
2017-11-20T02:54:08.616Z,3.00
2017-11-20T02:54:41.124Z,3.00
2017-11-20T02:55:14.449Z,3.00
2017-11-20T02:55:46.967Z,3.00
2017-11-20T02:56:19.495Z,3.00
2017-11-20T02:56:52.023Z,3.00
2017-11-20T02:57:24.542Z,3.00
2017-11-20T02:57:57.063Z,3.00
2017-11-20T02:58:29.589Z,3.10
2017-11-20T02:59:02.096Z,3.10
2017-11-20T02:59:34.629Z,3.10
2017-11-20T03:00:07.909Z,3.10
2017-11-20T03:00:40.407Z,3.10
2017-11-20T03:01:12.915Z,3.10
2017-11-20T03:01:45.432Z,3.10
2017-11-20T03:02:17.968Z,3.10
2017-11-20T03:02:51.248Z,3.20
2017-11-20T03:03:24.534Z,3.20
2017-11-20T03:03:57.068Z,3.20
2017-11-20T03:04:29.716Z,3.20
2017-11-20T03:05:02.253Z,3.20
2017-11-20T03:05:34.781Z,3.20
2017-11-20T03:06:08.072Z,3.30
2017-11-20T03:06:41.390Z,3.30
2017-11-20T03:07:13.929Z,3.20
2017-11-20T03:07:46.485Z,3.30
2017-11-20T03:08:19.027Z,3.30
2017-11-20T03:08:52.321Z,3.30
2017-11-20T03:09:24.844Z,3.30
2017-11-20T03:09:57.380Z,3.30
2017-11-20T03:10:29.907Z,3.30
2017-11-20T03:11:03.221Z,3.40
2017-11-20T03:11:35.755Z,3.40
2017-11-20T03:12:08.275Z,3.40
2017-11-20T03:12:40.811Z,3.40
2017-11-20T03:13:13.339Z,3.40
2017-11-20T03:13:46.614Z,3.40
2017-11-20T03:14:19.143Z,3.40
2017-11-20T03:14:51.681Z,3.40
2017-11-20T03:15:24.200Z,3.40
2017-11-20T03:15:56.737Z,3.50
2017-11-20T03:16:29.305Z,3.40
2017-11-20T03:17:03.016Z,3.50
2017-11-20T03:17:35.546Z,3.50
2017-11-20T03:18:08.073Z,3.50
2017-11-20T03:18:40.570Z,3.50
2017-11-20T03:19:13.074Z,3.50
2017-11-20T03:19:45.593Z,3.50
2017-11-20T03:20:18.102Z,3.50
2017-11-20T03:20:50.619Z,3.50
2017-11-20T03:21:23.140Z,3.60
2017-11-20T03:21:55.653Z,3.60
2017-11-20T03:22:28.184Z,3.60
2017-11-20T03:23:00.708Z,3.60
2017-11-20T03:23:33.219Z,3.60
2017-11-20T03:24:05.793Z,3.60
2017-11-20T03:24:38.335Z,3.60
2017-11-20T03:25:10.856Z,3.60
2017-11-20T03:25:43.375Z,3.70
2017-11-20T03:26:15.908Z,3.70
2017-11-20T03:26:49.212Z,3.70
2017-11-20T03:27:21.727Z,3.70
2017-11-20T03:27:54.252Z,3.70
2017-11-20T03:28:26.782Z,3.70
2017-11-20T03:28:59.303Z,3.70
2017-11-20T03:29:31.839Z,3.70
2017-11-20T03:30:04.366Z,3.70
2017-11-20T03:30:37.641Z,3.80
2017-11-20T03:31:10.166Z,3.80
2017-11-20T03:31:42.697Z,3.80
2017-11-20T03:32:15.224Z,3.80
2017-11-20T03:32:48.525Z,3.80
2017-11-20T03:33:21.044Z,3.80
2017-11-20T03:33:53.591Z,3.80
2017-11-20T03:34:26.104Z,3.80
2017-11-20T03:34:59.416Z,3.90
2017-11-20T03:35:31.945Z,3.80
2017-11-20T03:36:04.484Z,3.90
2017-11-20T03:36:37.048Z,3.90
2017-11-20T03:37:09.565Z,3.90
2017-11-20T03:37:42.096Z,3.90
2017-11-20T03:38:15.377Z,3.90
2017-11-20T03:38:47.899Z,3.90
2017-11-20T03:39:20.409Z,3.90
2017-11-20T03:39:53.828Z,3.90
2017-11-20T03:40:26.353Z,3.90
2017-11-20T03:40:58.898Z,3.90
2017-11-20T03:41:31.409Z,4.00
2017-11-20T03:42:03.931Z,4.00
2017-11-20T03:42:36.458Z,4.00
2017-11-20T03:43:08.984Z,4.00
2017-11-20T03:43:42.280Z,4.00
2017-11-20T03:44:14.810Z,4.00
2017-11-20T03:44:47.332Z,4.00
2017-11-20T03:45:19.853Z,4.00
2017-11-20T03:45:52.366Z,4.00
2017-11-20T03:46:24.888Z,4.00
2017-11-20T03:46:57.465Z,4.00
2017-11-20T03:47:29.982Z,4.00
2017-11-20T03:48:02.593Z,4.00
2017-11-20T03:48:35.129Z,4.10
2017-11-20T03:49:08.411Z,4.10
2017-11-20T03:49:41.721Z,4.10
2017-11-20T03:50:14.228Z,4.10
2017-11-20T03:50:47.529Z,4.10
2017-11-20T03:51:20.040Z,4.10
2017-11-20T03:51:52.560Z,4.10
2017-11-20T03:52:25.099Z,4.10
2017-11-20T03:52:57.644Z,4.10
2017-11-20T03:53:30.154Z,4.10
2017-11-20T03:54:02.692Z,4.10
2017-11-20T03:54:35.206Z,4.10
2017-11-20T03:55:07.725Z,4.10
2017-11-20T03:55:40.240Z,4.20
2017-11-20T03:56:12.767Z,4.10
2017-11-20T03:56:45.301Z,4.10
2017-11-20T03:57:18.026Z,4.10
2017-11-20T03:57:50.565Z,4.10
2017-11-20T03:58:23.864Z,4.20
2017-11-20T03:58:56.394Z,4.10
2017-11-20T03:59:29.684Z,4.20
2017-11-20T04:00:02.196Z,4.20
2017-11-20T04:00:34.729Z,4.20
2017-11-20T04:01:07.243Z,4.20
2017-11-20T04:01:39.757Z,4.20
2017-11-20T04:02:12.297Z,4.20
2017-11-20T04:02:45.576Z,4.30
2017-11-20T04:03:18.860Z,4.30
2017-11-20T04:03:51.391Z,4.30
2017-11-20T04:04:23.920Z,4.30
2017-11-20T04:04:56.453Z,4.30
2017-11-20T04:05:29.734Z,4.30
2017-11-20T04:06:02.244Z,4.30
2017-11-20T04:06:34.752Z,4.30
2017-11-20T04:07:08.020Z,4.30
2017-11-20T04:07:40.600Z,4.30
2017-11-20T04:08:13.879Z,4.30
2017-11-20T04:08:46.395Z,4.30
2017-11-20T04:09:18.924Z,4.40
2017-11-20T04:09:51.426Z,4.30
2017-11-20T04:10:23.962Z,4.40
2017-11-20T04:10:56.494Z,4.40
2017-11-20T04:11:29.779Z,4.40
2017-11-20T04:12:03.055Z,4.40
2017-11-20T04:12:35.635Z,4.40
2017-11-20T04:13:08.148Z,4.40
2017-11-20T04:13:40.671Z,4.40
2017-11-20T04:14:13.191Z,4.40
2017-11-20T04:14:45.700Z,4.40
2017-11-20T04:15:18.246Z,4.40
2017-11-20T04:15:51.551Z,4.50
2017-11-20T04:16:24.068Z,4.50
2017-11-20T04:16:56.623Z,4.50
2017-11-20T04:17:29.181Z,4.50
2017-11-20T04:18:01.696Z,4.50
2017-11-20T04:18:34.215Z,4.50
2017-11-20T04:19:06.736Z,4.50
2017-11-20T04:19:39.264Z,4.50
2017-11-20T04:20:11.767Z,4.50
2017-11-20T04:20:44.289Z,4.50
2017-11-20T04:21:16.821Z,4.50
2017-11-20T04:21:49.333Z,4.50
2017-11-20T04:22:21.865Z,4.50
2017-11-20T04:22:54.382Z,4.50
2017-11-20T04:23:26.927Z,4.50
2017-11-20T04:23:59.439Z,4.50
2017-11-20T04:24:31.963Z,4.50
2017-11-20T04:25:04.481Z,4.50
2017-11-20T04:25:36.999Z,4.50
2017-11-20T04:26:09.540Z,4.50
2017-11-20T04:26:42.061Z,4.60
2017-11-20T04:27:14.572Z,4.60
2017-11-20T04:27:47.112Z,4.60
2017-11-20T04:28:20.394Z,4.60
2017-11-20T04:28:53.668Z,4.60
2017-11-20T04:29:26.190Z,4.60
2017-11-20T04:29:58.712Z,4.60
2017-11-20T04:30:31.248Z,4.60
2017-11-20T04:31:03.755Z,4.60
2017-11-20T04:31:36.290Z,4.50
2017-11-20T04:32:09.600Z,4.60
2017-11-20T04:32:42.137Z,4.50
2017-11-20T04:33:14.650Z,4.60
2017-11-20T04:33:47.169Z,4.60
2017-11-20T04:34:19.679Z,4.60
2017-11-20T04:34:52.984Z,4.60
2017-11-20T04:35:25.524Z,4.60
2017-11-20T04:35:58.109Z,4.70
2017-11-20T04:36:30.668Z,4.70
2017-11-20T04:37:03.176Z,4.70
2017-11-20T04:37:35.713Z,4.70
2017-11-20T04:38:08.261Z,4.70
2017-11-20T04:38:40.764Z,4.70
2017-11-20T04:39:13.279Z,4.70
2017-11-20T04:39:45.795Z,4.70
2017-11-20T04:40:18.368Z,4.80
2017-11-20T04:40:50.887Z,4.80
2017-11-20T04:41:23.400Z,4.80
2017-11-20T04:41:55.910Z,4.80
2017-11-20T04:42:28.438Z,4.80
2017-11-20T04:43:01.027Z,4.80
2017-11-20T04:43:33.565Z,4.80
2017-11-20T04:44:06.089Z,4.80
2017-11-20T04:44:38.612Z,4.80
2017-11-20T04:45:11.121Z,4.80
2017-11-20T04:45:43.677Z,4.70
2017-11-20T04:46:16.990Z,4.70
2017-11-20T04:46:49.503Z,4.70
2017-11-20T04:47:22.025Z,4.70
2017-11-20T04:47:54.543Z,4.70
2017-11-20T04:48:28.001Z,4.70
2017-11-20T04:49:00.550Z,4.70
2017-11-20T04:49:33.108Z,4.70
2017-11-20T04:50:05.634Z,4.70
2017-11-20T04:50:38.212Z,4.70
2017-11-20T04:51:10.728Z,4.70
2017-11-20T04:51:43.256Z,4.70
2017-11-20T04:52:15.775Z,4.80
2017-11-20T04:52:48.311Z,4.80
2017-11-20T04:53:20.843Z,4.80
2017-11-20T04:53:53.360Z,4.70
2017-11-20T04:54:26.631Z,4.70
2017-11-20T04:54:59.148Z,4.70
2017-11-20T04:55:31.679Z,4.70
2017-11-20T04:56:04.384Z,4.70
2017-11-20T04:56:36.931Z,4.70
2017-11-20T04:57:09.456Z,4.70
2017-11-20T04:57:42.164Z,4.70
2017-11-20T04:58:14.684Z,4.70
2017-11-20T04:58:47.252Z,4.70
2017-11-20T04:59:19.852Z,4.70
2017-11-20T04:59:52.376Z,4.70
2017-11-20T05:00:24.939Z,4.70
2017-11-20T05:00:57.448Z,4.70
2017-11-20T05:01:30.004Z,4.70
2017-11-20T05:02:02.640Z,4.70
2017-11-20T05:02:35.935Z,4.70
2017-11-20T05:03:08.503Z,4.70
2017-11-20T05:03:41.033Z,4.70
2017-11-20T05:04:13.541Z,4.80
2017-11-20T05:04:46.155Z,4.80
2017-11-20T05:05:18.669Z,4.80
2017-11-20T05:05:51.232Z,4.80
2017-11-20T05:06:23.747Z,4.80
2017-11-20T05:06:56.260Z,4.80
2017-11-20T05:07:28.784Z,4.80
2017-11-20T05:08:01.308Z,4.80
2017-11-20T05:08:33.837Z,4.80
2017-11-20T05:09:07.154Z,4.80
2017-11-20T05:09:39.680Z,4.80
2017-11-20T05:10:12.242Z,4.80
2017-11-20T05:10:44.764Z,4.80
2017-11-20T05:11:17.281Z,4.80
2017-11-20T05:11:49.791Z,4.80
2017-11-20T05:12:22.328Z,4.80
2017-11-20T05:12:55.093Z,4.80
2017-11-20T05:13:27.631Z,4.80
2017-11-20T05:14:00.161Z,4.80
2017-11-20T05:14:32.879Z,4.80
2017-11-20T05:15:05.441Z,4.80
2017-11-20T05:15:37.981Z,4.80
2017-11-20T05:16:10.503Z,4.80
2017-11-20T05:16:43.856Z,4.80
2017-11-20T05:17:16.390Z,4.80
2017-11-20T05:17:49.664Z,4.80
2017-11-20T05:18:22.181Z,4.80
2017-11-20T05:18:54.692Z,4.80
2017-11-20T05:19:27.974Z,4.80
2017-11-20T05:20:00.501Z,4.80
2017-11-20T05:20:33.019Z,4.80
2017-11-20T05:21:05.577Z,4.80
2017-11-20T05:21:38.094Z,4.80
2017-11-20T05:22:10.639Z,4.80
2017-11-20T05:22:43.148Z,4.80
2017-11-20T05:23:16.428Z,4.80
2017-11-20T05:23:49.706Z,4.90
2017-11-20T05:24:22.235Z,4.80
2017-11-20T05:24:54.795Z,4.90
2017-11-20T05:25:27.319Z,4.90
2017-11-20T05:25:59.861Z,4.80
2017-11-20T05:26:33.178Z,4.80
2017-11-20T05:27:05.692Z,4.80
2017-11-20T05:27:38.217Z,4.80
2017-11-20T05:28:10.750Z,4.80
2017-11-20T05:28:43.252Z,4.80
2017-11-20T05:29:15.785Z,4.90
2017-11-20T05:29:48.305Z,4.90
2017-11-20T05:30:20.823Z,4.90
2017-11-20T05:30:53.430Z,4.90
2017-11-20T05:31:25.941Z,4.90
2017-11-20T05:31:58.487Z,4.90
2017-11-20T05:32:31.017Z,4.90
2017-11-20T05:33:03.589Z,4.90
2017-11-20T05:33:36.185Z,4.80
2017-11-20T05:34:08.726Z,4.80
2017-11-20T05:34:41.248Z,4.80
2017-11-20T05:35:13.784Z,4.80
2017-11-20T05:35:46.330Z,4.80
2017-11-20T05:36:19.022Z,4.90
2017-11-20T05:36:51.687Z,4.90
2017-11-20T05:37:24.248Z,4.90
2017-11-20T05:37:56.779Z,4.90
2017-11-20T05:38:29.321Z,4.90
2017-11-20T05:39:01.838Z,4.90
2017-11-20T05:39:34.383Z,4.90
2017-11-20T05:40:06.931Z,4.80
2017-11-20T05:40:40.301Z,4.80
2017-11-20T05:41:12.822Z,4.80
2017-11-20T05:41:45.388Z,4.80
2017-11-20T05:42:17.935Z,4.80
2017-11-20T05:42:50.605Z,4.80
2017-11-20T05:43:23.157Z,4.80
2017-11-20T05:43:55.690Z,4.80
2017-11-20T05:44:28.223Z,4.80
2017-11-20T05:45:00.837Z,4.80
2017-11-20T05:45:34.116Z,4.80
2017-11-20T05:46:06.646Z,4.80
2017-11-20T05:46:39.176Z,4.80
2017-11-20T05:47:11.704Z,4.80
2017-11-20T05:47:44.979Z,4.80
2017-11-20T05:48:17.682Z,4.80
2017-11-20T05:48:50.205Z,4.80
2017-11-20T05:49:22.745Z,4.80
2017-11-20T05:49:55.271Z,4.80
2017-11-20T05:50:27.793Z,4.80
2017-11-20T05:51:00.300Z,4.80
2017-11-20T05:51:32.818Z,4.80
2017-11-20T05:52:05.329Z,4.80
2017-11-20T05:52:37.851Z,4.80
2017-11-20T05:53:10.385Z,4.80
2017-11-20T05:53:43.058Z,4.80
2017-11-20T05:54:15.602Z,4.80
2017-11-20T05:54:48.156Z,4.80
2017-11-20T05:55:20.672Z,4.80
2017-11-20T05:55:53.205Z,4.80
2017-11-20T05:56:25.735Z,4.80
2017-11-20T05:56:58.317Z,4.80
2017-11-20T05:57:30.851Z,4.80
2017-11-20T05:58:03.354Z,4.80
2017-11-20T05:58:35.880Z,4.80
2017-11-20T05:59:08.413Z,4.80
2017-11-20T05:59:41.693Z,4.80
2017-11-20T06:00:14.227Z,4.80
2017-11-20T06:00:46.790Z,4.80
2017-11-20T06:01:19.336Z,4.80
2017-11-20T06:01:51.861Z,4.80
2017-11-20T06:02:24.394Z,4.80
2017-11-20T06:02:56.923Z,4.80
2017-11-20T06:03:29.439Z,4.80
2017-11-20T06:04:02.787Z,4.80
2017-11-20T06:04:35.345Z,4.80
2017-11-20T06:05:07.888Z,4.80
2017-11-20T06:05:40.425Z,4.80
2017-11-20T06:06:13.835Z,4.80
2017-11-20T06:06:46.356Z,4.80
2017-11-20T06:07:18.874Z,4.80
2017-11-20T06:07:51.474Z,4.80
2017-11-20T06:08:24.060Z,4.80
2017-11-20T06:08:57.351Z,4.80
2017-11-20T06:09:30.632Z,4.80
2017-11-20T06:10:03.331Z,4.80
2017-11-20T06:10:35.838Z,4.80
2017-11-20T06:11:08.431Z,4.80
2017-11-20T06:11:40.996Z,4.80
2017-11-20T06:12:13.521Z,4.80
2017-11-20T06:12:46.849Z,4.80
2017-11-20T06:13:19.378Z,4.80
2017-11-20T06:13:51.947Z,4.80
2017-11-20T06:14:25.231Z,4.80
2017-11-20T06:14:57.824Z,4.80
2017-11-20T06:15:30.621Z,4.90
2017-11-20T06:16:03.172Z,4.90
2017-11-20T06:16:35.693Z,4.90
2017-11-20T06:17:09.014Z,4.90
2017-11-20T06:17:41.528Z,4.90
2017-11-20T06:18:14.065Z,4.90
2017-11-20T06:18:46.620Z,4.90
2017-11-20T06:19:19.482Z,4.90
2017-11-20T06:19:52.005Z,4.90
2017-11-20T06:20:25.308Z,4.90
2017-11-20T06:20:57.843Z,4.90
2017-11-20T06:21:30.367Z,4.90
2017-11-20T06:22:02.908Z,4.80
2017-11-20T06:22:35.522Z,4.90
2017-11-20T06:23:08.068Z,4.80
2017-11-20T06:23:40.628Z,4.80
2017-11-20T06:24:13.156Z,4.80
2017-11-20T06:24:45.677Z,4.90
2017-11-20T06:25:18.185Z,4.90
2017-11-20T06:25:50.706Z,4.90
2017-11-20T06:26:23.244Z,4.90
2017-11-20T06:26:55.763Z,4.80
2017-11-20T06:27:28.313Z,4.90
2017-11-20T06:28:00.829Z,4.80
2017-11-20T06:28:33.359Z,4.90
2017-11-20T06:29:05.932Z,4.90
2017-11-20T06:29:38.573Z,4.90
2017-11-20T06:30:11.134Z,4.90
2017-11-20T06:30:43.641Z,4.90
2017-11-20T06:31:16.255Z,4.90
2017-11-20T06:31:48.824Z,4.90
2017-11-20T06:32:21.395Z,4.90
2017-11-20T06:32:53.946Z,4.90
2017-11-20T06:33:26.508Z,4.90
2017-11-20T06:33:59.047Z,4.90
2017-11-20T06:34:31.728Z,4.90
2017-11-20T06:35:04.253Z,4.90
2017-11-20T06:35:36.913Z,4.90
2017-11-20T06:36:09.582Z,4.90
2017-11-20T06:36:42.150Z,4.90
2017-11-20T06:37:14.730Z,4.90
2017-11-20T06:37:47.273Z,4.90
2017-11-20T06:38:19.914Z,4.90
2017-11-20T06:38:52.497Z,4.90
2017-11-20T06:39:25.021Z,4.90
2017-11-20T06:39:57.553Z,4.90
2017-11-20T06:40:30.093Z,4.90
2017-11-20T06:41:02.611Z,4.90
2017-11-20T06:41:35.909Z,4.90
2017-11-20T06:42:08.431Z,4.90
2017-11-20T06:42:40.990Z,4.90
2017-11-20T06:43:13.557Z,4.90
2017-11-20T06:43:46.100Z,4.90
2017-11-20T06:44:18.643Z,4.80
2017-11-20T06:44:51.162Z,4.80
2017-11-20T06:45:24.513Z,4.80
2017-11-20T06:45:57.826Z,4.80
2017-11-20T06:46:30.393Z,4.80
2017-11-20T06:47:03.692Z,4.80
2017-11-20T06:47:36.211Z,4.80
2017-11-20T06:48:08.768Z,4.80
2017-11-20T06:48:42.047Z,4.80
2017-11-20T06:49:14.711Z,4.80
2017-11-20T06:49:47.254Z,4.90
2017-11-20T06:50:19.803Z,4.80
2017-11-20T06:50:52.392Z,4.80
2017-11-20T06:51:24.913Z,4.80
2017-11-20T06:51:58.211Z,4.80
2017-11-20T06:52:30.858Z,4.80
2017-11-20T06:53:03.373Z,4.80
2017-11-20T06:53:35.967Z,4.80
2017-11-20T06:54:08.571Z,4.80
2017-11-20T06:54:41.169Z,4.80
2017-11-20T06:55:13.701Z,4.80
2017-11-20T06:55:46.307Z,4.80
2017-11-20T06:56:18.831Z,4.80
2017-11-20T06:56:51.349Z,4.70
2017-11-20T06:57:23.949Z,4.70
2017-11-20T06:57:56.488Z,4.70
2017-11-20T06:58:29.041Z,4.70
2017-11-20T06:59:01.655Z,4.70
2017-11-20T06:59:34.200Z,4.70
2017-11-20T07:00:06.715Z,4.70
2017-11-20T07:00:39.242Z,4.80
2017-11-20T07:01:11.810Z,4.70
2017-11-20T07:01:44.580Z,4.70
2017-11-20T07:02:17.132Z,4.70
2017-11-20T07:02:50.949Z,4.70
2017-11-20T07:03:24.676Z,4.70
2017-11-20T07:03:58.011Z,4.70
2017-11-20T07:04:31.789Z,4.70
2017-11-20T07:05:06.054Z,4.70
2017-11-20T07:05:38.787Z,4.70
2017-11-20T07:06:12.897Z,4.70
2017-11-20T07:06:47.777Z,4.70
2017-11-20T07:07:20.332Z,4.70
2017-11-20T07:07:54.073Z,4.70
2017-11-20T07:08:27.391Z,4.60
2017-11-20T07:08:59.990Z,4.70
2017-11-20T07:09:34.184Z,4.60
2017-11-20T07:10:06.951Z,4.60
2017-11-20T07:10:39.658Z,4.60
2017-11-20T07:11:12.217Z,4.60
2017-11-20T07:11:44.861Z,4.70
2017-11-20T07:12:17.628Z,4.60
2017-11-20T07:12:50.222Z,4.60
2017-11-20T07:13:22.856Z,4.60
2017-11-20T07:13:55.495Z,4.70
2017-11-20T07:14:28.867Z,4.60